sensor_id;sensor_type;location;lat;lon;timestamp;P1;P2;P0
36453;PMS5003;22478;51.740;-1.314;2022-11-20T00:01:07;308;308;
36453;PMS5003;22478;51.740;-1.314;2022-11-20T00:03:36;358;357;
36453;PMS5003;22478;51.740;-1.314;2022-11-20T00:06:05;377;377;
36453;PMS5003;22478;51.740;-1.314;2022-11-20T00:08:34;292;292;
36453;PMS5003;22478;51.740;-1.314;2022-11-20T00:11:02;296;295;
36453;PMS5003;22478;51.740;-1.314;2022-11-20T00:13:30;368;366;
36453;PMS5003;22478;51.740;-1.314;2022-11-20T00:15:57;305;303;
36453;PMS5003;22478;51.740;-1.314;2022-11-20T00:18:25;284;283;
36453;PMS5003;22478;51.740;-1.314;2022-11-20T00:20:53;298;298;
36453;PMS5003;22478;51.740;-1.314;2022-11-20T00:23:20;337;335;
36453;PMS5003;22478;51.740;-1.314;2022-11-20T00:25:47;294;294;
36453;PMS5003;22478;51.740;-1.314;2022-11-20T00:28:14;306;305;
36453;PMS5003;22478;51.740;-1.314;2022-11-20T00:30:41;307;305;
36453;PMS5003;22478;51.740;-1.314;2022-11-20T00:33:08;269;267;
36453;PMS5003;22478;51.740;-1.314;2022-11-20T00:35:35;289;288;
36453;PMS5003;22478;51.740;-1.314;2022-11-20T00:38:02;258;256;
36453;PMS5003;22478;51.740;-1.314;2022-11-20T00:40:29;269;269;
36453;PMS5003;22478;51.740;-1.314;2022-11-20T00:42:57;254;254;
36453;PMS5003;22478;51.740;-1.314;2022-11-20T00:45:23;273;270;
36453;PMS5003;22478;51.740;-1.314;2022-11-20T00:47:51;308;308;
36453;PMS5003;22478;51.740;-1.314;2022-11-20T00:50:18;324;324;
36453;PMS5003;22478;51.740;-1.314;2022-11-20T00:52:45;303;299;
36453;PMS5003;22478;51.740;-1.314;2022-11-20T00:55:12;286;286;
36453;PMS5003;22478;51.740;-1.314;2022-11-20T00:57:39;305;305;
36453;PMS5003;22478;51.740;-1.314;2022-11-20T01:00:07;277;277;
36453;PMS5003;22478;51.740;-1.314;2022-11-20T01:02:35;324;321;
36453;PMS5003;22478;51.740;-1.314;2022-11-20T01:05:02;287;287;
36453;PMS5003;22478;51.740;-1.314;2022-11-20T01:07:30;280;278;
36453;PMS5003;22478;51.740;-1.314;2022-11-20T01:09:58;267;266;
36453;PMS5003;22478;51.740;-1.314;2022-11-20T01:12:25;257;257;
36453;PMS5003;22478;51.740;-1.314;2022-11-20T01:14:53;262;261;
36453;PMS5003;22478;51.740;-1.314;2022-11-20T01:17:20;255;253;
36453;PMS5003;22478;51.740;-1.314;2022-11-20T01:19:48;242;237;
36453;PMS5003;22478;51.740;-1.314;2022-11-20T01:22:15;215;213;
36453;PMS5003;22478;51.740;-1.314;2022-11-20T01:24:43;224;223;
36453;PMS5003;22478;51.740;-1.314;2022-11-20T01:27:10;230;228;
36453;PMS5003;22478;51.740;-1.314;2022-11-20T01:29:37;245;242;
36453;PMS5003;22478;51.740;-1.314;2022-11-20T01:32:04;270;270;
36453;PMS5003;22478;51.740;-1.314;2022-11-20T01:34:31;254;254;
36453;PMS5003;22478;51.740;-1.314;2022-11-20T01:36:58;234;233;
36453;PMS5003;22478;51.740;-1.314;2022-11-20T01:39:25;227;225;
36453;PMS5003;22478;51.740;-1.314;2022-11-20T01:41:54;267;267;
36453;PMS5003;22478;51.740;-1.314;2022-11-20T01:44:39;234;230;
36453;PMS5003;22478;51.740;-1.314;2022-11-20T01:47:15;245;244;
36453;PMS5003;22478;51.740;-1.314;2022-11-20T01:49:45;235;228;
36453;PMS5003;22478;51.740;-1.314;2022-11-20T01:52:17;232;232;
36453;PMS5003;22478;51.740;-1.314;2022-11-20T01:54:47;222;222;
36453;PMS5003;22478;51.740;-1.314;2022-11-20T01:57:17;225;225;
36453;PMS5003;22478;51.740;-1.314;2022-11-20T01:59:47;225;224;
36453;PMS5003;22478;51.740;-1.314;2022-11-20T02:02:20;234;234;
36453;PMS5003;22478;51.740;-1.314;2022-11-20T02:04:48;248;246;
36453;PMS5003;22478;51.740;-1.314;2022-11-20T02:07:18;257;255;
36453;PMS5003;22478;51.740;-1.314;2022-11-20T02:09:46;261;260;
36453;PMS5003;22478;51.740;-1.314;2022-11-20T02:12:13;266;266;
36453;PMS5003;22478;51.740;-1.314;2022-11-20T02:14:41;272;269;
36453;PMS5003;22478;51.740;-1.314;2022-11-20T02:17:08;278;278;
36453;PMS5003;22478;51.740;-1.314;2022-11-20T02:19:35;251;248;
36453;PMS5003;22478;51.740;-1.314;2022-11-20T02:22:05;277;277;
36453;PMS5003;22478;51.740;-1.314;2022-11-20T02:24:36;256;256;
36453;PMS5003;22478;51.740;-1.314;2022-11-20T02:27:05;270;268;
36453;PMS5003;22478;51.740;-1.314;2022-11-20T02:29:38;280;278;
36453;PMS5003;22478;51.740;-1.314;2022-11-20T02:32:17;289;288;
36453;PMS5003;22478;51.740;-1.314;2022-11-20T02:34:45;284;284;
36453;PMS5003;22478;51.740;-1.314;2022-11-20T02:37:12;285;284;
36453;PMS5003;22478;51.740;-1.314;2022-11-20T02:39:40;277;276;
36453;PMS5003;22478;51.740;-1.314;2022-11-20T02:42:10;277;277;
36453;PMS5003;22478;51.740;-1.314;2022-11-20T02:44:37;268;267;
36453;PMS5003;22478;51.740;-1.314;2022-11-20T02:47:05;278;276;
36453;PMS5003;22478;51.740;-1.314;2022-11-20T02:49:32;256;252;
36453;PMS5003;22478;51.740;-1.314;2022-11-20T02:52:00;276;273;
36453;PMS5003;22478;51.740;-1.314;2022-11-20T02:54:27;263;262;
36453;PMS5003;22478;51.740;-1.314;2022-11-20T02:56:54;266;265;
36453;PMS5003;22478;51.740;-1.314;2022-11-20T02:59:21;270;269;
36453;PMS5003;22478;51.740;-1.314;2022-11-20T03:01:48;277;276;
36453;PMS5003;22478;51.740;-1.314;2022-11-20T03:04:16;279;277;
36453;PMS5003;22478;51.740;-1.314;2022-11-20T03:06:43;271;271;
36453;PMS5003;22478;51.740;-1.314;2022-11-20T03:09:11;284;281;
36453;PMS5003;22478;51.740;-1.314;2022-11-20T03:11:39;277;276;
36453;PMS5003;22478;51.740;-1.314;2022-11-20T03:14:06;262;262;
36453;PMS5003;22478;51.740;-1.314;2022-11-20T03:16:33;274;273;
36453;PMS5003;22478;51.740;-1.314;2022-11-20T03:19:00;289;288;
36453;PMS5003;22478;51.740;-1.314;2022-11-20T03:21:27;321;321;
36453;PMS5003;22478;51.740;-1.314;2022-11-20T03:23:54;334;332;
36453;PMS5003;22478;51.740;-1.314;2022-11-20T03:26:22;278;278;
36453;PMS5003;22478;51.740;-1.314;2022-11-20T03:28:52;290;288;
36453;PMS5003;22478;51.740;-1.314;2022-11-20T03:31:21;278;278;
36453;PMS5003;22478;51.740;-1.314;2022-11-20T03:33:49;308;308;
36453;PMS5003;22478;51.740;-1.314;2022-11-20T03:36:17;296;296;
36453;PMS5003;22478;51.740;-1.314;2022-11-20T03:38:45;293;292;
36453;PMS5003;22478;51.740;-1.314;2022-11-20T03:41:14;293;290;
36453;PMS5003;22478;51.740;-1.314;2022-11-20T03:43:46;337;337;
36453;PMS5003;22478;51.740;-1.314;2022-11-20T03:46:14;333;329;
36453;PMS5003;22478;51.740;-1.314;2022-11-20T03:48:42;303;301;
36453;PMS5003;22478;51.740;-1.314;2022-11-20T03:51:10;300;300;
36453;PMS5003;22478;51.740;-1.314;2022-11-20T03:53:38;326;323;
36453;PMS5003;22478;51.740;-1.314;2022-11-20T03:56:07;295;294;
36453;PMS5003;22478;51.740;-1.314;2022-11-20T03:58:35;278;278;
36453;PMS5003;22478;51.740;-1.314;2022-11-20T04:01:04;269;269;
36453;PMS5003;22478;51.740;-1.314;2022-11-20T04:03:34;293;287;
36453;PMS5003;22478;51.740;-1.314;2022-11-20T04:06:02;264;264;
36453;PMS5003;22478;51.740;-1.314;2022-11-20T04:08:30;280;276;
36453;PMS5003;22478;51.740;-1.314;2022-11-20T04:11:07;282;279;
36453;PMS5003;22478;51.740;-1.314;2022-11-20T04:13:36;287;281;
36453;PMS5003;22478;51.740;-1.314;2022-11-20T04:16:03;285;283;
36453;PMS5003;22478;51.740;-1.314;2022-11-20T04:18:31;314;309;
36453;PMS5003;22478;51.740;-1.314;2022-11-20T04:20:59;328;327;
36453;PMS5003;22478;51.740;-1.314;2022-11-20T04:23:26;321;321;
36453;PMS5003;22478;51.740;-1.314;2022-11-20T04:25:53;342;342;
36453;PMS5003;22478;51.740;-1.314;2022-11-20T04:28:21;290;290;
36453;PMS5003;22478;51.740;-1.314;2022-11-20T04:30:48;304;303;
36453;PMS5003;22478;51.740;-1.314;2022-11-20T04:33:15;299;294;
36453;PMS5003;22478;51.740;-1.314;2022-11-20T04:35:43;296;296;
36453;PMS5003;22478;51.740;-1.314;2022-11-20T04:38:13;308;305;
36453;PMS5003;22478;51.740;-1.314;2022-11-20T04:40:40;291;290;
36453;PMS5003;22478;51.740;-1.314;2022-11-20T04:43:07;288;287;
36453;PMS5003;22478;51.740;-1.314;2022-11-20T04:45:34;313;311;
36453;PMS5003;22478;51.740;-1.314;2022-11-20T04:48:02;283;281;
36453;PMS5003;22478;51.740;-1.314;2022-11-20T04:50:29;296;295;
36453;PMS5003;22478;51.740;-1.314;2022-11-20T04:52:56;300;300;
36453;PMS5003;22478;51.740;-1.314;2022-11-20T04:55:23;296;293;
36453;PMS5003;22478;51.740;-1.314;2022-11-20T04:57:50;283;283;
36453;PMS5003;22478;51.740;-1.314;2022-11-20T05:00:18;286;286;
36453;PMS5003;22478;51.740;-1.314;2022-11-20T05:02:45;298;295;
36453;PMS5003;22478;51.740;-1.314;2022-11-20T05:05:13;333;333;
36453;PMS5003;22478;51.740;-1.314;2022-11-20T05:07:40;314;314;
36453;PMS5003;22478;51.740;-1.314;2022-11-20T05:10:07;323;321;
36453;PMS5003;22478;51.740;-1.314;2022-11-20T05:12:35;350;350;
36453;PMS5003;22478;51.740;-1.314;2022-11-20T05:15:02;328;325;
36453;PMS5003;22478;51.740;-1.314;2022-11-20T05:17:29;260;257;
36453;PMS5003;22478;51.740;-1.314;2022-11-20T05:19:56;275;275;
36453;PMS5003;22478;51.740;-1.314;2022-11-20T05:22:24;270;270;
36453;PMS5003;22478;51.740;-1.314;2022-11-20T05:24:51;275;272;
36453;PMS5003;22478;51.740;-1.314;2022-11-20T05:27:18;279;279;
36453;PMS5003;22478;51.740;-1.314;2022-11-20T05:29:45;267;266;
36453;PMS5003;22478;51.740;-1.314;2022-11-20T05:32:13;261;259;
36453;PMS5003;22478;51.740;-1.314;2022-11-20T05:34:39;258;257;
36453;PMS5003;22478;51.740;-1.314;2022-11-20T05:37:07;260;257;
36453;PMS5003;22478;51.740;-1.314;2022-11-20T05:39:33;260;260;
36453;PMS5003;22478;51.740;-1.314;2022-11-20T05:42:00;276;275;
36453;PMS5003;22478;51.740;-1.314;2022-11-20T05:44:27;284;283;
36453;PMS5003;22478;51.740;-1.314;2022-11-20T05:46:54;290;290;
36453;PMS5003;22478;51.740;-1.314;2022-11-20T05:49:22;297;297;
36453;PMS5003;22478;51.740;-1.314;2022-11-20T05:51:49;306;305;
36453;PMS5003;22478;51.740;-1.314;2022-11-20T05:54:16;314;314;
36453;PMS5003;22478;51.740;-1.314;2022-11-20T05:56:44;274;274;
36453;PMS5003;22478;51.740;-1.314;2022-11-20T05:59:11;285;283;
36453;PMS5003;22478;51.740;-1.314;2022-11-20T06:01:38;276;276;
36453;PMS5003;22478;51.740;-1.314;2022-11-20T06:04:05;267;267;
36453;PMS5003;22478;51.740;-1.314;2022-11-20T06:06:32;262;260;
36453;PMS5003;22478;51.740;-1.314;2022-11-20T06:08:59;266;264;
36453;PMS5003;22478;51.740;-1.314;2022-11-20T06:11:27;268;266;
36453;PMS5003;22478;51.740;-1.314;2022-11-20T06:13:54;253;253;
36453;PMS5003;22478;51.740;-1.314;2022-11-20T06:16:21;257;257;
36453;PMS5003;22478;51.740;-1.314;2022-11-20T06:18:48;265;264;
36453;PMS5003;22478;51.740;-1.314;2022-11-20T06:21:17;250;249;
36453;PMS5003;22478;51.740;-1.314;2022-11-20T06:23:45;278;275;
36453;PMS5003;22478;51.740;-1.314;2022-11-20T06:26:14;299;297;
36453;PMS5003;22478;51.740;-1.314;2022-11-20T06:28:42;280;277;
36453;PMS5003;22478;51.740;-1.314;2022-11-20T06:31:11;273;273;
36453;PMS5003;22478;51.740;-1.314;2022-11-20T06:33:39;273;272;
36453;PMS5003;22478;51.740;-1.314;2022-11-20T06:36:07;256;253;
36453;PMS5003;22478;51.740;-1.314;2022-11-20T06:38:36;285;281;
36453;PMS5003;22478;51.740;-1.314;2022-11-20T06:41:04;300;299;
36453;PMS5003;22478;51.740;-1.314;2022-11-20T06:43:32;300;299;
36453;PMS5003;22478;51.740;-1.314;2022-11-20T06:45:59;260;257;
36453;PMS5003;22478;51.740;-1.314;2022-11-20T06:48:27;268;265;
36453;PMS5003;22478;51.740;-1.314;2022-11-20T06:50:55;272;268;
36453;PMS5003;22478;51.740;-1.314;2022-11-20T06:53:23;276;273;
36453;PMS5003;22478;51.740;-1.314;2022-11-20T06:55:51;249;249;
36453;PMS5003;22478;51.740;-1.314;2022-11-20T06:58:19;268;268;
36453;PMS5003;22478;51.740;-1.314;2022-11-20T07:00:46;291;290;
36453;PMS5003;22478;51.740;-1.314;2022-11-20T07:03:13;265;263;
36453;PMS5003;22478;51.740;-1.314;2022-11-20T07:05:40;268;268;
36453;PMS5003;22478;51.740;-1.314;2022-11-20T07:08:07;270;270;
36453;PMS5003;22478;51.740;-1.314;2022-11-20T07:10:34;280;276;
36453;PMS5003;22478;51.740;-1.314;2022-11-20T07:13:02;273;272;
36453;PMS5003;22478;51.740;-1.314;2022-11-20T07:15:29;265;265;
36453;PMS5003;22478;51.740;-1.314;2022-11-20T07:17:58;272;268;
36453;PMS5003;22478;51.740;-1.314;2022-11-20T07:20:25;295;292;
36453;PMS5003;22478;51.740;-1.314;2022-11-20T07:22:53;311;311;
36453;PMS5003;22478;51.740;-1.314;2022-11-20T07:25:20;264;261;
36453;PMS5003;22478;51.740;-1.314;2022-11-20T07:27:48;278;277;
36453;PMS5003;22478;51.740;-1.314;2022-11-20T07:30:15;253;253;
36453;PMS5003;22478;51.740;-1.314;2022-11-20T07:32:45;313;311;
36453;PMS5003;22478;51.740;-1.314;2022-11-20T07:35:13;279;278;
36453;PMS5003;22478;51.740;-1.314;2022-11-20T07:37:40;245;243;
36453;PMS5003;22478;51.740;-1.314;2022-11-20T07:40:08;287;286;
36453;PMS5003;22478;51.740;-1.314;2022-11-20T07:42:36;310;310;
36453;PMS5003;22478;51.740;-1.314;2022-11-20T07:45:04;274;272;
36453;PMS5003;22478;51.740;-1.314;2022-11-20T07:47:34;311;311;
36453;PMS5003;22478;51.740;-1.314;2022-11-20T07:50:02;321;321;
36453;PMS5003;22478;51.740;-1.314;2022-11-20T07:52:30;284;284;
36453;PMS5003;22478;51.740;-1.314;2022-11-20T07:54:57;253;249;
36453;PMS5003;22478;51.740;-1.314;2022-11-20T07:57:24;252;252;
36453;PMS5003;22478;51.740;-1.314;2022-11-20T07:59:51;242;240;
36453;PMS5003;22478;51.740;-1.314;2022-11-20T08:02:19;254;254;
36453;PMS5003;22478;51.740;-1.314;2022-11-20T08:04:46;257;257;
36453;PMS5003;22478;51.740;-1.314;2022-11-20T08:07:13;256;256;
36453;PMS5003;22478;51.740;-1.314;2022-11-20T08:09:40;263;262;
36453;PMS5003;22478;51.740;-1.314;2022-11-20T08:12:08;274;273;
36453;PMS5003;22478;51.740;-1.314;2022-11-20T08:14:43;282;280;
36453;PMS5003;22478;51.740;-1.314;2022-11-20T08:17:10;286;286;
36453;PMS5003;22478;51.740;-1.314;2022-11-20T08:19:38;276;276;
36453;PMS5003;22478;51.740;-1.314;2022-11-20T08:22:05;287;287;
36453;PMS5003;22478;51.740;-1.314;2022-11-20T08:24:32;280;280;
36453;PMS5003;22478;51.740;-1.314;2022-11-20T08:27:00;260;260;
36453;PMS5003;22478;51.740;-1.314;2022-11-20T08:29:27;319;316;
36453;PMS5003;22478;51.740;-1.314;2022-11-20T08:31:55;326;318;
36453;PMS5003;22478;51.740;-1.314;2022-11-20T08:34:22;302;299;
36453;PMS5003;22478;51.740;-1.314;2022-11-20T08:36:49;292;291;
36453;PMS5003;22478;51.740;-1.314;2022-11-20T08:39:16;317;317;
36453;PMS5003;22478;51.740;-1.314;2022-11-20T08:41:43;313;311;
36453;PMS5003;22478;51.740;-1.314;2022-11-20T08:44:10;316;316;
36453;PMS5003;22478;51.740;-1.314;2022-11-20T08:46:38;330;329;
36453;PMS5003;22478;51.740;-1.314;2022-11-20T08:49:07;311;311;
36453;PMS5003;22478;51.740;-1.314;2022-11-20T08:51:36;310;308;
36453;PMS5003;22478;51.740;-1.314;2022-11-20T08:54:04;300;296;
36453;PMS5003;22478;51.740;-1.314;2022-11-20T08:56:32;275;275;
36453;PMS5003;22478;51.740;-1.314;2022-11-20T08:59:00;297;296;
36453;PMS5003;22478;51.740;-1.314;2022-11-20T09:01:27;284;282;
36453;PMS5003;22478;51.740;-1.314;2022-11-20T09:03:55;274;274;
36453;PMS5003;22478;51.740;-1.314;2022-11-20T09:06:22;265;262;
36453;PMS5003;22478;51.740;-1.314;2022-11-20T09:08:51;275;274;
36453;PMS5003;22478;51.740;-1.314;2022-11-20T09:11:18;273;272;
36453;PMS5003;22478;51.740;-1.314;2022-11-20T09:13:45;273;273;
36453;PMS5003;22478;51.740;-1.314;2022-11-20T09:16:12;273;273;
36453;PMS5003;22478;51.740;-1.314;2022-11-20T09:18:39;275;274;
36453;PMS5003;22478;51.740;-1.314;2022-11-20T09:21:09;288;285;
36453;PMS5003;22478;51.740;-1.314;2022-11-20T09:23:38;262;261;
36453;PMS5003;22478;51.740;-1.314;2022-11-20T09:26:05;291;291;
36453;PMS5003;22478;51.740;-1.314;2022-11-20T09:28:36;283;283;
36453;PMS5003;22478;51.740;-1.314;2022-11-20T09:31:04;272;271;
36453;PMS5003;22478;51.740;-1.314;2022-11-20T09:33:32;275;274;
36453;PMS5003;22478;51.740;-1.314;2022-11-20T09:35:59;289;289;
36453;PMS5003;22478;51.740;-1.314;2022-11-20T09:38:27;270;270;
36453;PMS5003;22478;51.740;-1.314;2022-11-20T09:40:55;288;288;
36453;PMS5003;22478;51.740;-1.314;2022-11-20T09:43:26;296;293;
36453;PMS5003;22478;51.740;-1.314;2022-11-20T09:46:07;321;321;
36453;PMS5003;22478;51.740;-1.314;2022-11-20T09:48:43;299;299;
36453;PMS5003;22478;51.740;-1.314;2022-11-20T09:51:20;297;296;
36453;PMS5003;22478;51.740;-1.314;2022-11-20T09:54:00;288;288;
36453;PMS5003;22478;51.740;-1.314;2022-11-20T09:56:40;280;279;
36453;PMS5003;22478;51.740;-1.314;2022-11-20T09:59:14;282;279;
36453;PMS5003;22478;51.740;-1.314;2022-11-20T10:01:53;271;269;
36453;PMS5003;22478;51.740;-1.314;2022-11-20T10:04:21;287;282;
36453;PMS5003;22478;51.740;-1.314;2022-11-20T10:06:51;277;273;
36453;PMS5003;22478;51.740;-1.314;2022-11-20T10:09:27;287;283;
36453;PMS5003;22478;51.740;-1.314;2022-11-20T10:12:03;292;290;
36453;PMS5003;22478;51.740;-1.314;2022-11-20T10:14:41;261;261;
36453;PMS5003;22478;51.740;-1.314;2022-11-20T10:17:24;268;266;
36453;PMS5003;22478;51.740;-1.314;2022-11-20T10:20:05;263;263;
36453;PMS5003;22478;51.740;-1.314;2022-11-20T10:22:46;276;276;
36453;PMS5003;22478;51.740;-1.314;2022-11-20T10:25:26;339;339;
36453;PMS5003;22478;51.740;-1.314;2022-11-20T10:28:10;299;294;
36453;PMS5003;22478;51.740;-1.314;2022-11-20T10:30:48;271;270;
36453;PMS5003;22478;51.740;-1.314;2022-11-20T10:33:22;279;278;
36453;PMS5003;22478;51.740;-1.314;2022-11-20T10:35:52;282;280;
36453;PMS5003;22478;51.740;-1.314;2022-11-20T10:38:29;298;298;
36453;PMS5003;22478;51.740;-1.314;2022-11-20T10:41:03;294;294;
36453;PMS5003;22478;51.740;-1.314;2022-11-20T10:43:33;292;289;
36453;PMS5003;22478;51.740;-1.314;2022-11-20T10:46:01;290;288;
36453;PMS5003;22478;51.740;-1.314;2022-11-20T10:48:33;235;234;
36453;PMS5003;22478;51.740;-1.314;2022-11-20T10:51:07;242;239;
36453;PMS5003;22478;51.740;-1.314;2022-11-20T10:53:45;261;261;
36453;PMS5003;22478;51.740;-1.314;2022-11-20T10:56:23;243;240;
36453;PMS5003;22478;51.740;-1.314;2022-11-20T10:59:00;241;240;
36453;PMS5003;22478;51.740;-1.314;2022-11-20T11:01:39;451;450;
36453;PMS5003;22478;51.740;-1.314;2022-11-20T11:04:14;342;340;
36453;PMS5003;22478;51.740;-1.314;2022-11-20T11:06:50;376;375;
36453;PMS5003;22478;51.740;-1.314;2022-11-20T11:09:25;359;359;
36453;PMS5003;22478;51.740;-1.314;2022-11-20T11:11:56;366;365;
36453;PMS5003;22478;51.740;-1.314;2022-11-20T11:14:23;241;241;
36453;PMS5003;22478;51.740;-1.314;2022-11-20T11:16:50;221;220;
36453;PMS5003;22478;51.740;-1.314;2022-11-20T11:19:19;174;173;
36453;PMS5003;22478;51.740;-1.314;2022-11-20T11:21:47;274;274;
36453;PMS5003;22478;51.740;-1.314;2022-11-20T11:24:20;233;233;
36453;PMS5003;22478;51.740;-1.314;2022-11-20T11:26:52;241;240;
36453;PMS5003;22478;51.740;-1.314;2022-11-20T11:29:22;312;312;
36453;PMS5003;22478;51.740;-1.314;2022-11-20T11:31:49;389;387;
36453;PMS5003;22478;51.740;-1.314;2022-11-20T11:34:17;399;399;
36453;PMS5003;22478;51.740;-1.314;2022-11-20T11:36:49;235;233;
36453;PMS5003;22478;51.740;-1.314;2022-11-20T11:39:22;267;267;
36453;PMS5003;22478;51.740;-1.314;2022-11-20T11:41:52;171;171;
36453;PMS5003;22478;51.740;-1.314;2022-11-20T11:44:20;187;187;
36453;PMS5003;22478;51.740;-1.314;2022-11-20T11:46:52;219;218;
36453;PMS5003;22478;51.740;-1.314;2022-11-20T11:49:20;210;210;
36453;PMS5003;22478;51.740;-1.314;2022-11-20T11:51:55;213;210;
36453;PMS5003;22478;51.740;-1.314;2022-11-20T11:54:31;248;247;
36453;PMS5003;22478;51.740;-1.314;2022-11-20T11:57:05;255;254;
36453;PMS5003;22478;51.740;-1.314;2022-11-20T11:59:43;290;290;
36453;PMS5003;22478;51.740;-1.314;2022-11-20T12:02:25;184;183;
36453;PMS5003;22478;51.740;-1.314;2022-11-20T12:04:59;242;240;
36453;PMS5003;22478;51.740;-1.314;2022-11-20T12:07:37;276;276;
36453;PMS5003;22478;51.740;-1.314;2022-11-20T12:10:13;237;237;
36453;PMS5003;22478;51.740;-1.314;2022-11-20T12:12:44;275;275;
36453;PMS5003;22478;51.740;-1.314;2022-11-20T12:15:22;195;193;
36453;PMS5003;22478;51.740;-1.314;2022-11-20T12:17:55;185;185;
36453;PMS5003;22478;51.740;-1.314;2022-11-20T12:20:24;166;159;
36453;PMS5003;22478;51.740;-1.314;2022-11-20T12:22:56;206;204;
36453;PMS5003;22478;51.740;-1.314;2022-11-20T12:25:32;269;264;
36453;PMS5003;22478;51.740;-1.314;2022-11-20T12:28:14;169;167;
36453;PMS5003;22478;51.740;-1.314;2022-11-20T12:30:55;106;104;
36453;PMS5003;22478;51.740;-1.314;2022-11-20T12:33:44;75;73;
36453;PMS5003;22478;51.740;-1.314;2022-11-20T12:36:20;131;128;
36453;PMS5003;22478;51.740;-1.314;2022-11-20T12:39:02;94;94;
36453;PMS5003;22478;51.740;-1.314;2022-11-20T12:41:47;237;237;
36453;PMS5003;22478;51.740;-1.314;2022-11-20T12:44:27;242;239;
36453;PMS5003;22478;51.740;-1.314;2022-11-20T12:47:10;141;139;
36453;PMS5003;22478;51.740;-1.314;2022-11-20T12:49:48;213;212;
36453;PMS5003;22478;51.740;-1.314;2022-11-20T12:52:26;185;182;
36453;PMS5003;22478;51.740;-1.314;2022-11-20T12:55:09;328;325;
36453;PMS5003;22478;51.740;-1.314;2022-11-20T12:57:50;233;231;
36453;PMS5003;22478;51.740;-1.314;2022-11-20T13:00:21;178;174;
36453;PMS5003;22478;51.740;-1.314;2022-11-20T13:03:06;121;119;
36453;PMS5003;22478;51.740;-1.314;2022-11-20T13:05:51;268;266;
36453;PMS5003;22478;51.740;-1.314;2022-11-20T13:08:27;232;232;
36453;PMS5003;22478;51.740;-1.314;2022-11-20T13:10:57;354;354;
36453;PMS5003;22478;51.740;-1.314;2022-11-20T13:13:33;292;292;
36453;PMS5003;22478;51.740;-1.314;2022-11-20T13:16:08;353;353;
36453;PMS5003;22478;51.740;-1.314;2022-11-20T13:18:44;377;373;
36453;PMS5003;22478;51.740;-1.314;2022-11-20T13:21:15;243;241;
36453;PMS5003;22478;51.740;-1.314;2022-11-20T13:23:43;421;420;
36453;PMS5003;22478;51.740;-1.314;2022-11-20T13:26:15;328;328;
36453;PMS5003;22478;51.740;-1.314;2022-11-20T13:28:46;265;262;
36453;PMS5003;22478;51.740;-1.314;2022-11-20T13:31:28;256;253;
36453;PMS5003;22478;51.740;-1.314;2022-11-20T13:33:57;340;339;
36453;PMS5003;22478;51.740;-1.314;2022-11-20T13:36:27;301;301;
36453;PMS5003;22478;51.740;-1.314;2022-11-20T13:38:56;258;258;
36453;PMS5003;22478;51.740;-1.314;2022-11-20T13:41:24;230;227;
36453;PMS5003;22478;51.740;-1.314;2022-11-20T13:43:53;251;249;
36453;PMS5003;22478;51.740;-1.314;2022-11-20T13:46:34;286;284;
36453;PMS5003;22478;51.740;-1.314;2022-11-20T13:49:06;305;304;
36453;PMS5003;22478;51.740;-1.314;2022-11-20T13:51:37;345;344;
36453;PMS5003;22478;51.740;-1.314;2022-11-20T13:54:14;323;323;
36453;PMS5003;22478;51.740;-1.314;2022-11-20T13:56:55;276;274;
36453;PMS5003;22478;51.740;-1.314;2022-11-20T13:59:40;268;268;
36453;PMS5003;22478;51.740;-1.314;2022-11-20T14:02:18;302;300;
36453;PMS5003;22478;51.740;-1.314;2022-11-20T14:04:47;329;328;
36453;PMS5003;22478;51.740;-1.314;2022-11-20T14:07:17;349;349;
36453;PMS5003;22478;51.740;-1.314;2022-11-20T14:09:50;375;375;
36453;PMS5003;22478;51.740;-1.314;2022-11-20T14:12:19;381;381;
36453;PMS5003;22478;51.740;-1.314;2022-11-20T14:14:51;326;326;
36453;PMS5003;22478;51.740;-1.314;2022-11-20T14:17:20;276;276;
36453;PMS5003;22478;51.740;-1.314;2022-11-20T14:19:50;345;345;
36453;PMS5003;22478;51.740;-1.314;2022-11-20T14:22:20;327;325;
36453;PMS5003;22478;51.740;-1.314;2022-11-20T14:25:00;397;397;
36453;PMS5003;22478;51.740;-1.314;2022-11-20T14:27:29;357;357;
36453;PMS5003;22478;51.740;-1.314;2022-11-20T14:30:00;305;302;
36453;PMS5003;22478;51.740;-1.314;2022-11-20T14:32:28;284;284;
36453;PMS5003;22478;51.740;-1.314;2022-11-20T14:34:58;290;290;
36453;PMS5003;22478;51.740;-1.314;2022-11-20T14:37:33;285;283;
36453;PMS5003;22478;51.740;-1.314;2022-11-20T14:40:03;335;330;
36453;PMS5003;22478;51.740;-1.314;2022-11-20T14:42:48;268;268;
36453;PMS5003;22478;51.740;-1.314;2022-11-20T14:45:15;350;350;
36453;PMS5003;22478;51.740;-1.314;2022-11-20T14:47:43;260;257;
36453;PMS5003;22478;51.740;-1.314;2022-11-20T14:50:12;289;288;
36453;PMS5003;22478;51.740;-1.314;2022-11-20T14:52:49;280;278;
36453;PMS5003;22478;51.740;-1.314;2022-11-20T14:55:26;238;238;
36453;PMS5003;22478;51.740;-1.314;2022-11-20T14:57:55;220;220;
36453;PMS5003;22478;51.740;-1.314;2022-11-20T15:00:24;253;250;
36453;PMS5003;22478;51.740;-1.314;2022-11-20T15:02:52;206;206;
36453;PMS5003;22478;51.740;-1.314;2022-11-20T15:05:20;248;248;
36453;PMS5003;22478;51.740;-1.314;2022-11-20T15:07:49;326;326;
36453;PMS5003;22478;51.740;-1.314;2022-11-20T15:10:21;184;184;
36453;PMS5003;22478;51.740;-1.314;2022-11-20T15:12:50;172;170;
36453;PMS5003;22478;51.740;-1.314;2022-11-20T15:15:20;193;192;
36453;PMS5003;22478;51.740;-1.314;2022-11-20T15:17:51;189;187;
36453;PMS5003;22478;51.740;-1.314;2022-11-20T15:20:18;319;319;
36453;PMS5003;22478;51.740;-1.314;2022-11-20T15:22:47;282;282;
36453;PMS5003;22478;51.740;-1.314;2022-11-20T15:25:15;235;235;
36453;PMS5003;22478;51.740;-1.314;2022-11-20T15:27:44;241;241;
36453;PMS5003;22478;51.740;-1.314;2022-11-20T15:30:13;204;202;
36453;PMS5003;22478;51.740;-1.314;2022-11-20T15:32:42;175;175;
36453;PMS5003;22478;51.740;-1.314;2022-11-20T15:35:10;182;182;
36453;PMS5003;22478;51.740;-1.314;2022-11-20T15:37:38;204;204;
36453;PMS5003;22478;51.740;-1.314;2022-11-20T15:40:06;201;198;
36453;PMS5003;22478;51.740;-1.314;2022-11-20T15:42:34;196;196;
36453;PMS5003;22478;51.740;-1.314;2022-11-20T15:45:02;218;216;
36453;PMS5003;22478;51.740;-1.314;2022-11-20T15:47:30;248;246;
36453;PMS5003;22478;51.740;-1.314;2022-11-20T15:50:00;231;231;